| time (UTC) | temp C | wind direction | speed KPH | gust KPH | rain 1hr cm | rain 24hr cm | rain mn cm | humidity % | barometer mb |
| 20260507000421 | 20 | 152 | 0.0 | 3.2 | 0.00 | 0.00 | 0.00 | 73 | 1007.9 |
| 20260506235917 | 20 | 226 | 0.0 | 1.6 | 0.00 | 0.00 | 0.00 | 73 | 1008.0 |
| 20260506235415 | 20 | 161 | 0.0 | 0.0 | 0.00 | 0.00 | 0.00 | 72 | 1008.1 |
| 20260506234909 | 20 | 160 | 0.0 | 1.6 | 0.00 | 0.00 | 0.00 | 72 | 1008.0 |
| 20260506234408 | 20 | 159 | 0.0 | 0.0 | 0.00 | 0.00 | 0.00 | 72 | 1008.0 |
| 20260506233905 | 20 | 171 | 0.0 | 1.6 | 0.00 | 0.00 | 0.00 | 71 | 1007.6 |
| 20260506233401 | 20 | 155 | 0.0 | 4.8 | 0.00 | 0.00 | 0.00 | 71 | 1007.9 |
| 20260506232858 | 20 | 153 | 0.0 | 1.6 | 0.00 | 0.00 | 0.00 | 71 | 1007.6 |
| 20260506232354 | 20 | 151 | 0.0 | 1.6 | 0.00 | 0.00 | 0.00 | 71 | 1007.8 |
| 20260506231850 | 20 | 259 | 0.0 | 1.6 | 0.00 | 0.00 | 0.00 | 71 | 1007.7 |
| 20260506231348 | 21 | 192 | 1.6 | 6.4 | 0.00 | 0.00 | 0.00 | 70 | 1007.6 |
| 20260506230845 | 21 | 178 | 0.0 | 1.6 | 0.00 | 0.00 | 0.00 | 70 | 1007.6 |
| 20260506230342 | 21 | 156 | 1.6 | 3.2 | 0.00 | 0.00 | 0.00 | 70 | 1007.5 |
| 20260506225838 | 20 | 177 | 1.6 | 3.2 | 0.00 | 0.00 | 0.00 | 70 | 1007.8 |
| 20260506225336 | 20 | 163 | 0.0 | 1.6 | 0.00 | 0.00 | 0.00 | 70 | 1007.7 |
| 20260506224832 | 21 | 153 | 0.0 | 3.2 | 0.00 | 0.00 | 0.00 | 70 | 1007.9 |
| 20260506224330 | 21 | 216 | 1.6 | 3.2 | 0.00 | 0.00 | 0.00 | 70 | 1007.8 |
| 20260506223826 | 21 | 172 | 0.0 | 3.2 | 0.00 | 0.00 | 0.00 | 69 | 1007.6 |
| 20260506223321 | 21 | 171 | 1.6 | 1.6 | 0.00 | 0.00 | 0.00 | 69 | 1007.7 |
| 20260506222819 | 21 | 170 | 1.6 | 6.4 | 0.00 | 0.00 | 0.00 | 69 | 1007.6 |
| 20260506222314 | 21 | 147 | 3.2 | 3.2 | 0.00 | 0.00 | 0.00 | 69 | 1007.5 |
| 20260506221812 | 21 | 178 | 0.0 | 4.8 | 0.00 | 0.00 | 0.00 | 69 | 1007.6 |
| 20260506221309 | 21 | 158 | 3.2 | 4.8 | 0.00 | 0.00 | 0.00 | 69 | 1007.7 |
| 20260506220807 | 21 | 173 | 4.8 | 11.3 | 0.00 | 0.00 | 0.00 | 68 | 1007.7 |
| 20260506220302 | 21 | 164 | 1.6 | 3.2 | 0.00 | 0.00 | 0.00 | 70 | 1007.7 |
| 20260506215759 | 20 | 194 | 0.0 | 1.6 | 0.00 | 0.00 | 0.00 | 70 | 1007.6 |
| 20260506215254 | 20 | 164 | 1.6 | 3.2 | 0.00 | 0.00 | 0.00 | 70 | 1007.7 |
| 20260506214750 | 20 | 162 | 0.0 | 1.6 | 0.00 | 0.00 | 0.00 | 71 | 1007.6 |
| 20260506214248 | 20 | 158 | 1.6 | 1.6 | 0.00 | 0.00 | 0.00 | 70 | 1007.7 |
| 20260506213746 | 20 | 168 | 1.6 | 1.6 | 0.00 | 0.00 | 0.00 | 70 | 1007.3 |
| 20260506213243 | 20 | 173 | 0.0 | 4.8 | 0.00 | 0.00 | 0.00 | 70 | 1007.3 |
| 20260506212740 | 20 | 136 | 0.0 | 4.8 | 0.00 | 0.00 | 0.00 | 70 | 1007.4 |
| 20260506212236 | 20 | 198 | 3.2 | 6.4 | 0.00 | 0.00 | 0.00 | 70 | 1007.4 |
| 20260506211731 | 20 | 183 | 1.6 | 1.6 | 0.00 | 0.00 | 0.00 | 71 | 1007.2 |
| 20260506211228 | 20 | 255 | 0.0 | 3.2 | 0.00 | 0.00 | 0.00 | 71 | 1007.2 |
| 20260506210725 | 20 | 274 | 1.6 | 3.2 | 0.00 | 0.00 | 0.00 | 71 | 1007.1 |
| 20260506210222 | 20 | 149 | 0.0 | 9.7 | 0.00 | 0.00 | 0.00 | 71 | 1007.1 |
| 20260506205719 | 20 | 31 | 4.8 | 6.4 | 0.00 | 0.00 | 0.00 | 70 | 1007.1 |
| 20260506205214 | 20 | 147 | 1.6 | 6.4 | 0.00 | 0.00 | 0.00 | 71 | 1006.7 |
| 20260506204711 | 20 | 169 | 0.0 | 1.6 | 0.00 | 0.00 | 0.00 | 71 | 1007.1 |
| 20260506204209 | 20 | 176 | 1.6 | 4.8 | 0.00 | 0.00 | 0.00 | 72 | 1007.0 |
| 20260506203707 | 20 | 177 | 0.0 | 4.8 | 0.00 | 0.00 | 0.00 | 73 | 1007.0 |
| 20260506203203 | 20 | 136 | 0.0 | 1.6 | 0.00 | 0.00 | 0.00 | 72 | 1006.8 |
| 20260506202701 | 20 | 120 | 1.6 | 3.2 | 0.00 | 0.00 | 0.00 | 73 | 1007.1 |
| 20260506202157 | 20 | 147 | 0.0 | 1.6 | 0.00 | 0.00 | 0.00 | 73 | 1007.1 |
| 20260506201654 | 20 | 138 | 0.0 | 1.6 | 0.00 | 0.00 | 0.00 | 73 | 1007.1 |
| 20260506201150 | 20 | 180 | 0.0 | 9.7 | 0.00 | 0.00 | 0.00 | 73 | 1007.3 |
| 20260506200647 | 20 | 154 | 0.0 | 3.2 | 0.00 | 0.00 | 0.00 | 74 | 1007.2 |
| 20260506200144 | 20 | 152 | 0.0 | 6.4 | 0.00 | 0.00 | 0.00 | 73 | 1007.3 |
| 20260506195641 | 19 | 173 | 1.6 | 3.2 | 0.00 | 0.00 | 0.00 | 74 | 1007.4 |
| 20260506195137 | 19 | 159 | 6.4 | 9.7 | 0.00 | 0.00 | 0.00 | 74 | 1007.4 |
| 20260506194635 | 19 | 269 | 3.2 | 4.8 | 0.00 | 0.00 | 0.00 | 75 | 1007.6 |
| 20260506194131 | 19 | 235 | 0.0 | 3.2 | 0.00 | 0.00 | 0.00 | 75 | 1007.4 |
| 20260506193629 | 18 | 188 | 0.0 | 4.8 | 0.00 | 0.00 | 0.00 | 76 | 1007.7 |
| 20260506193126 | 18 | 141 | 3.2 | 4.8 | 0.00 | 0.00 | 0.00 | 77 | 1007.6 |
| 20260506192622 | 18 | 164 | 0.0 | 3.2 | 0.00 | 0.00 | 0.00 | 79 | 1007.6 |
| 20260506192118 | 18 | 110 | 0.0 | 4.8 | 0.00 | 0.00 | 0.00 | 80 | 1007.9 |
| 20260506191615 | 18 | 74 | 1.6 | 3.2 | 0.00 | 0.00 | 0.00 | 81 | 1007.7 |
| 20260506191111 | 18 | 213 | 1.6 | 1.6 | 0.00 | 0.00 | 0.00 | 81 | 1007.7 |
| 20260506190609 | 18 | 165 | 0.0 | 1.6 | 0.00 | 0.00 | 0.00 | 80 | 1007.8 |
| 20260506190105 | 18 | 128 | 0.0 | 3.2 | 0.00 | 0.00 | 0.00 | 77 | 1007.8 |
| 20260506185603 | 19 | 165 | 3.2 | 11.3 | 0.00 | 0.00 | 0.00 | 72 | 1008.0 |
| 20260506185059 | 20 | 160 | 3.2 | 9.7 | 0.00 | 0.00 | 0.00 | 71 | 1008.0 |
| 20260506184556 | 20 | 226 | 3.2 | 4.8 | 0.00 | 0.00 | 0.00 | 70 | 1008.0 |
| 20260506184054 | 19 | 152 | 0.0 | 11.3 | 0.00 | 0.00 | 0.00 | 71 | 1007.8 |
| 20260506183549 | 19 | 165 | 1.6 | 9.7 | 0.00 | 0.00 | 0.00 | 71 | 1007.8 |
| 20260506183046 | 19 | 193 | 1.6 | 11.3 | 0.00 | 0.00 | 0.00 | 71 | 1007.9 |
| 20260506182543 | 20 | 192 | 3.2 | 12.9 | 0.00 | 0.00 | 0.00 | 69 | 1008.0 |
| 20260506182041 | 20 | 247 | 1.6 | 12.9 | 0.00 | 0.00 | 0.00 | 68 | 1008.1 |
| 20260506181539 | 20 | 123 | 6.4 | 20.9 | 0.00 | 0.00 | 0.00 | 65 | 1008.3 |
| 20260506181035 | 21 | 306 | 4.8 | 12.9 | 0.00 | 0.00 | 0.00 | 62 | 1007.8 |
| 20260506180532 | 21 | 212 | 4.8 | 12.9 | 0.00 | 0.00 | 0.00 | 60 | 1008.0 |
| 20260506180028 | 21 | 178 | 11.3 | 30.6 | 0.00 | 0.00 | 0.00 | 61 | 1008.0 |
| 20260506175525 | 21 | 164 | 3.2 | 6.4 | 0.00 | 0.00 | 0.00 | 62 | 1008.1 |
| 20260506175021 | 21 | 213 | 1.6 | 6.4 | 0.00 | 0.00 | 0.00 | 61 | 1008.2 |
| 20260506174520 | 22 | 151 | 1.6 | 4.8 | 0.00 | 0.00 | 0.00 | 60 | 1008.2 |
| 20260506174015 | 21 | 92 | 1.6 | 6.4 | 0.00 | 0.00 | 0.00 | 60 | 1008.2 |
| 20260506173514 | 22 | 165 | 4.8 | 9.7 | 0.00 | 0.00 | 0.00 | 60 | 1008.2 |
| 20260506173010 | 22 | 112 | 9.7 | 12.9 | 0.00 | 0.00 | 0.00 | 61 | 1008.2 |
| 20260506172508 | 21 | 278 | 3.2 | 12.9 | 0.00 | 0.00 | 0.00 | 61 | 1008.3 |
| 20260506172004 | 21 | 107 | 1.6 | 14.5 | 0.00 | 0.00 | 0.00 | 61 | 1008.2 |
| 20260506171501 | 22 | 158 | 3.2 | 14.5 | 0.00 | 0.00 | 0.00 | 62 | 1008.3 |
| 20260506170959 | 22 | 206 | 3.2 | 6.4 | 0.00 | 0.00 | 0.00 | 61 | 1008.4 |
| 20260506170455 | 21 | 108 | 3.2 | 6.4 | 0.00 | 0.00 | 0.00 | 61 | 1008.5 |
| 20260506165954 | 21 | 196 | 3.2 | 6.4 | 0.00 | 0.00 | 0.00 | 62 | 1008.7 |
| 20260506165452 | 21 | 238 | 1.6 | 11.3 | 0.00 | 0.00 | 0.00 | 62 | 1008.6 |
| 20260506164948 | 21 | 142 | 3.2 | 4.8 | 0.00 | 0.00 | 0.00 | 62 | 1008.7 |
| 20260506164445 | 21 | 163 | 3.2 | 3.2 | 0.00 | 0.00 | 0.00 | 63 | 1009.1 |
| 20260506163942 | 21 | 157 | 0.0 | 6.4 | 0.00 | 0.00 | 0.00 | 62 | 1009.2 |
| 20260506163437 | 21 | 162 | 0.0 | 3.2 | 0.00 | 0.00 | 0.00 | 63 | 1009.3 |
| 20260506162932 | 21 | 177 | 1.6 | 3.2 | 0.00 | 0.00 | 0.00 | 63 | 1009.7 |
| 20260506162430 | 21 | 196 | 0.0 | 1.6 | 0.00 | 0.00 | 0.00 | 63 | 1009.6 |
| 20260506161927 | 21 | 130 | 3.2 | 9.7 | 0.00 | 0.00 | 0.00 | 62 | 1009.9 |
| 20260506161426 | 21 | 151 | 1.6 | 3.2 | 0.00 | 0.00 | 0.00 | 60 | 1009.8 |
| 20260506160923 | 21 | 217 | 3.2 | 3.2 | 0.00 | 0.00 | 0.00 | 58 | 1009.7 |
| 20260506160420 | 21 | 167 | 1.6 | 9.7 | 0.00 | 0.00 | 0.00 | 57 | 1009.6 |
| 20260506155918 | 21 | 168 | 1.6 | 4.8 | 0.00 | 0.00 | 0.00 | 56 | 1009.7 |
| 20260506155415 | 22 | 197 | 1.6 | 11.3 | 0.00 | 0.00 | 0.00 | 56 | 1009.5 |
| 20260506153536 | 23 | 167 | 3.2 | 3.2 | 0.00 | 0.00 | 0.00 | 53 | 1009.8 |
| 20260506153034 | 22 | 173 | 1.6 | 11.3 | 0.00 | 0.00 | 0.00 | 54 | 1009.6 |
| 20260506152531 | 22 | 129 | 3.2 | 9.7 | 0.00 | 0.00 | 0.00 | 54 | 1009.8 |
| 20260506152029 | 22 | 197 | 3.2 | 6.4 | 0.00 | 0.00 | 0.00 | 55 | 1010.0 |
| 20260506151526 | 22 | 134 | 6.4 | 6.4 | 0.00 | 0.00 | 0.00 | 55 | 1009.7 |
| 20260506151023 | 22 | 124 | 1.6 | 9.7 | 0.00 | 0.00 | 0.00 | 55 | 1009.8 |
| 20260506150519 | 22 | 165 | 0.0 | 3.2 | 0.00 | 0.00 | 0.00 | 55 | 1009.9 |
| 20260506150017 | 22 | 180 | 4.8 | 11.3 | 0.00 | 0.00 | 0.00 | 55 | 1009.8 |
| 20260506145513 | 22 | 202 | 1.6 | 3.2 | 0.00 | 0.00 | 0.00 | 55 | 1009.8 |
| 20260506145011 | 22 | 220 | 4.8 | 14.5 | 0.00 | 0.00 | 0.00 | 53 | 1009.8 |
| 20260506144507 | 22 | 146 | 17.7 | 29.0 | 0.00 | 0.00 | 0.00 | 52 | 1009.8 |
| 20260506144005 | 23 | 140 | 1.6 | 4.8 | 0.00 | 0.00 | 0.00 | 53 | 1009.7 |
| 20260506143502 | 22 | 170 | 1.6 | 4.8 | 0.00 | 0.00 | 0.00 | 53 | 1009.7 |
| 20260506143000 | 22 | 169 | 6.4 | 6.4 | 0.00 | 0.00 | 0.00 | 53 | 1009.8 |
| 20260506142458 | 22 | 218 | 3.2 | 4.8 | 0.00 | 0.00 | 0.00 | 54 | 1009.7 |
| 20260506141956 | 22 | 164 | 0.0 | 9.7 | 0.00 | 0.00 | 0.00 | 55 | 1009.8 |
| 20260506141453 | 22 | 168 | 1.6 | 6.4 | 0.00 | 0.00 | 0.00 | 55 | 1009.7 |
| 20260506140952 | 22 | 267 | 6.4 | 6.4 | 0.00 | 0.00 | 0.00 | 55 | 1009.7 |
| 20260506140448 | 22 | 163 | 3.2 | 6.4 | 0.00 | 0.00 | 0.00 | 56 | 1009.6 |
| 20260506135945 | 22 | 168 | 3.2 | 22.5 | 0.00 | 0.00 | 0.00 | 55 | 1009.5 |
| 20260506135443 | 22 | 165 | 3.2 | 16.1 | 0.00 | 0.00 | 0.00 | 55 | 1009.6 |
| 20260506134938 | 22 | 200 | 6.4 | 12.9 | 0.00 | 0.00 | 0.00 | 56 | 1009.7 |
| 20260506134435 | 22 | 174 | 1.6 | 9.7 | 0.00 | 0.00 | 0.00 | 57 | 1009.6 |
| 20260506133932 | 22 | 140 | 3.2 | 6.4 | 0.00 | 0.00 | 0.00 | 56 | 1010.0 |
| 20260506133429 | 22 | 148 | 3.2 | 12.9 | 0.00 | 0.00 | 0.00 | 56 | 1010.1 |
| 20260506132925 | 22 | 166 | 1.6 | 16.1 | 0.00 | 0.00 | 0.00 | 56 | 1010.1 |
| 20260506132422 | 22 | 250 | 6.4 | 9.7 | 0.00 | 0.00 | 0.00 | 57 | 1010.1 |
| 20260506131920 | 21 | 159 | 9.7 | 12.9 | 0.00 | 0.00 | 0.00 | 59 | 1010.2 |
| 20260506131416 | 21 | 162 | 3.2 | 12.9 | 0.00 | 0.00 | 0.00 | 60 | 1010.3 |
| 20260506130913 | 21 | 147 | 6.4 | 11.3 | 0.00 | 0.00 | 0.00 | 61 | 1010.4 |
| 20260506130410 | 21 | 173 | 3.2 | 9.7 | 0.00 | 0.00 | 0.00 | 62 | 1010.3 |
| 20260506125908 | 21 | 151 | 3.2 | 14.5 | 0.00 | 0.00 | 0.00 | 63 | 1010.4 |
| 20260506125406 | 20 | 135 | 3.2 | 4.8 | 0.00 | 0.00 | 0.00 | 64 | 1010.0 |
| 20260506124904 | 20 | 158 | 4.8 | 20.9 | 0.00 | 0.00 | 0.00 | 65 | 1010.2 |
| 20260506124401 | 20 | 159 | 6.4 | 9.7 | 0.00 | 0.00 | 0.00 | 67 | 1010.3 |
| 20260506123859 | 19 | 262 | 3.2 | 17.7 | 0.00 | 0.00 | 0.00 | 68 | 1010.1 |
| 20260506123357 | 18 | 139 | 3.2 | 9.7 | 0.00 | 0.00 | 0.00 | 69 | 1010.5 |
| 20260506122854 | 18 | 124 | 6.4 | 11.3 | 0.00 | 0.00 | 0.00 | 70 | 1010.2 |
| 20260506122350 | 18 | 160 | 1.6 | 6.4 | 0.00 | 0.00 | 0.00 | 71 | 1010.3 |
| 20260506121849 | 18 | 142 | 6.4 | 16.1 | 0.00 | 0.00 | 0.00 | 70 | 1010.5 |
| 20260506121345 | 18 | 196 | 1.6 | 24.1 | 0.00 | 0.00 | 0.00 | 71 | 1010.3 |
| 20260506120842 | 18 | 128 | 4.8 | 4.8 | 0.00 | 0.00 | 0.00 | 71 | 1010.2 |
| 20260506120340 | 18 | 119 | 8.0 | 14.5 | 0.00 | 0.00 | 0.00 | 72 | 1010.5 |
| 20260506115837 | 18 | 153 | 1.6 | 12.9 | 0.00 | 0.00 | 0.00 | 73 | 1010.5 |
| 20260506115335 | 18 | 147 | 8.0 | 12.9 | 0.00 | 0.00 | 0.00 | 72 | 1010.5 |
| 20260506114833 | 18 | 95 | 4.8 | 6.4 | 0.00 | 0.00 | 0.00 | 73 | 1010.6 |
| 20260506114331 | 17 | 130 | 4.8 | 11.3 | 0.00 | 0.00 | 0.00 | 73 | 1010.5 |
| 20260506113829 | 17 | 124 | 6.4 | 17.7 | 0.00 | 0.00 | 0.00 | 74 | 1010.6 |
| 20260506113326 | 17 | 191 | 3.2 | 12.9 | 0.00 | 0.00 | 0.00 | 75 | 1010.6 |
| 20260506112823 | 17 | 178 | 1.6 | 9.7 | 0.00 | 0.00 | 0.00 | 77 | 1010.5 |
| 20260506112320 | 16 | 179 | 3.2 | 4.8 | 0.00 | 0.00 | 0.00 | 78 | 1010.6 |
| 20260506111817 | 16 | 188 | 0.0 | 4.8 | 0.00 | 0.00 | 0.00 | 78 | 1010.6 |
| 20260506111315 | 16 | 181 | 3.2 | 4.8 | 0.00 | 0.00 | 0.00 | 78 | 1010.9 |
| 20260506110813 | 16 | 212 | 3.2 | 4.8 | 0.00 | 0.00 | 0.00 | 78 | 1010.7 |
| 20260506110309 | 16 | 146 | 1.6 | 4.8 | 0.00 | 0.00 | 0.00 | 79 | 1010.7 |
| 20260506105806 | 16 | 135 | 9.7 | 12.9 | 0.00 | 0.00 | 0.00 | 80 | 1010.4 |
| 20260506105305 | 16 | 163 | 3.2 | 6.4 | 0.00 | 0.00 | 0.00 | 80 | 1010.6 |
| 20260506104800 | 16 | 136 | 0.0 | 6.4 | 0.00 | 0.00 | 0.00 | 81 | 1010.6 |
| 20260506104258 | 16 | 109 | 1.6 | 6.4 | 0.00 | 0.00 | 0.00 | 81 | 1010.6 |
| 20260506103755 | 16 | 214 | 3.2 | 12.9 | 0.00 | 0.00 | 0.00 | 82 | 1010.6 |
| 20260506103253 | 16 | 167 | 3.2 | 9.7 | 0.00 | 0.00 | 0.00 | 82 | 1010.7 |
| 20260506102750 | 16 | 207 | 1.6 | 9.7 | 0.00 | 0.00 | 0.00 | 82 | 1010.6 |
| 20260506102248 | 16 | 161 | 0.0 | 6.4 | 0.00 | 0.00 | 0.00 | 82 | 1010.5 |
| 20260506101745 | 16 | 128 | 3.2 | 6.4 | 0.00 | 0.00 | 0.00 | 82 | 1010.6 |
| 20260506101241 | 16 | 162 | 6.4 | 9.7 | 0.00 | 0.00 | 0.00 | 82 | 1010.5 |
| 20260506100739 | 16 | 133 | 1.6 | 4.8 | 0.00 | 0.00 | 0.00 | 82 | 1010.4 |
| 20260506100237 | 16 | 187 | 3.2 | 4.8 | 0.00 | 0.00 | 0.00 | 82 | 1010.3 |
| 20260506095735 | 16 | 187 | 3.2 | 6.4 | 0.00 | 0.00 | 0.00 | 82 | 1010.3 |
| 20260506095232 | 16 | 150 | 0.0 | 3.2 | 0.00 | 0.00 | 0.00 | 82 | 1010.5 |
| 20260506094729 | 16 | 171 | 3.2 | 4.8 | 0.00 | 0.00 | 0.00 | 82 | 1010.3 |
| 20260506094227 | 16 | 141 | 3.2 | 6.4 | 0.00 | 0.00 | 0.00 | 82 | 1010.2 |
| 20260506093725 | 16 | 159 | 4.8 | 6.4 | 0.00 | 0.00 | 0.00 | 82 | 1010.3 |
| 20260506093222 | 16 | 170 | 0.0 | 4.8 | 0.00 | 0.00 | 0.00 | 81 | 1010.5 |
| 20260506092720 | 16 | 143 | 4.8 | 14.5 | 0.00 | 0.00 | 0.00 | 81 | 1010.5 |
| 20260506092217 | 16 | 155 | 1.6 | 9.7 | 0.00 | 0.00 | 0.00 | 81 | 1010.4 |
| 20260506091715 | 16 | 156 | 8.0 | 11.3 | 0.00 | 0.00 | 0.00 | 81 | 1010.3 |
| 20260506091212 | 16 | 157 | 1.6 | 11.3 | 0.00 | 0.00 | 0.00 | 81 | 1010.5 |
| 20260506090710 | 16 | 144 | 4.8 | 9.7 | 0.00 | 0.00 | 0.00 | 81 | 1010.3 |
| 20260506090206 | 16 | 219 | 3.2 | 14.5 | 0.00 | 0.00 | 0.00 | 81 | 1010.6 |
| 20260506085703 | 16 | 183 | 3.2 | 4.8 | 0.00 | 0.00 | 0.00 | 80 | 1010.5 |
| 20260506085159 | 16 | 168 | 4.8 | 9.7 | 0.00 | 0.00 | 0.00 | 80 | 1010.7 |
| 20260506084656 | 16 | 164 | 0.0 | 9.7 | 0.00 | 0.00 | 0.00 | 80 | 1010.6 |
| 20260506084152 | 16 | 183 | 1.6 | 9.7 | 0.00 | 0.00 | 0.00 | 79 | 1010.6 |
| 20260506083649 | 16 | 173 | 4.8 | 6.4 | 0.00 | 0.00 | 0.00 | 79 | 1010.5 |
| 20260506083147 | 16 | 130 | 4.8 | 12.9 | 0.00 | 0.00 | 0.00 | 79 | 1010.6 |
| 20260506082644 | 16 | 151 | 0.0 | 12.9 | 0.00 | 0.00 | 0.00 | 79 | 1010.7 |
| 20260506082145 | 16 | 181 | 8.0 | 11.3 | 0.00 | 0.00 | 0.00 | 79 | 1010.4 |
| 20260506081643 | 16 | 231 | 6.4 | 11.3 | 0.00 | 0.00 | 0.00 | 79 | 1010.7 |
| 20260506081141 | 17 | 152 | 0.0 | 4.8 | 0.00 | 0.00 | 0.00 | 78 | 1010.6 |
| 20260506080638 | 17 | 147 | 0.0 | 6.4 | 0.00 | 0.00 | 0.00 | 78 | 1010.7 |
| 20260506080134 | 17 | 203 | 3.2 | 9.7 | 0.00 | 0.00 | 0.00 | 78 | 1010.5 |
| 20260506073119 | 17 | 151 | 3.2 | 4.8 | 0.00 | 0.00 | 0.00 | 77 | 1010.5 |
| 20260506072615 | 17 | 170 | 6.4 | 11.3 | 0.00 | 0.00 | 0.00 | 77 | 1010.7 |
| 20260506072113 | 17 | 178 | 4.8 | 6.4 | 0.00 | 0.00 | 0.00 | 77 | 1011.0 |
| 20260506071610 | 17 | 144 | 4.8 | 6.4 | 0.00 | 0.00 | 0.00 | 77 | 1010.9 |
| 20260506071108 | 17 | 181 | 1.6 | 4.8 | 0.00 | 0.00 | 0.00 | 77 | 1010.7 |
| 20260506070605 | 17 | 125 | 3.2 | 4.8 | 0.00 | 0.00 | 0.00 | 77 | 1010.8 |
| 20260506062039 | 17 | 136 | 4.8 | 9.7 | 0.00 | 0.00 | 0.00 | 76 | 1010.9 |
| 20260506061535 | 17 | 156 | 1.6 | 6.4 | 0.00 | 0.00 | 0.00 | 77 | 1011.0 |
| 20260506061033 | 17 | 152 | 1.6 | 3.2 | 0.00 | 0.00 | 0.00 | 76 | 1010.8 |
| 20260506060531 | 17 | 150 | 3.2 | 6.4 | 0.00 | 0.00 | 0.00 | 76 | 1010.7 |
| 20260506051000 | 18 | 187 | 1.6 | 9.7 | 0.00 | 0.00 | 0.00 | 70 | 1011.2 |
| 20260506050458 | 18 | 159 | 4.8 | 9.7 | 0.00 | 0.00 | 0.00 | 70 | 1011.3 |
| 20260506044948 | 18 | 111 | 6.4 | 9.7 | 0.00 | 0.00 | 0.00 | 69 | 1011.3 |
| 20260506044446 | 18 | 154 | 3.2 | 11.3 | 0.00 | 0.00 | 0.00 | 68 | 1011.2 |
| 20260506043942 | 18 | 226 | 3.2 | 6.4 | 0.00 | 0.00 | 0.00 | 68 | 1011.3 |
| 20260506043440 | 18 | 132 | 0.0 | 9.7 | 0.00 | 0.00 | 0.00 | 68 | 1011.3 |
| 20260506042937 | 18 | 197 | 4.8 | 9.7 | 0.00 | 0.00 | 0.00 | 68 | 1011.3 |
| 20260506042437 | 18 | 154 | 4.8 | 4.8 | 0.00 | 0.00 | 0.00 | 67 | 1011.2 |
| 20260506041934 | 18 | 153 | 4.8 | 6.4 | 0.00 | 0.00 | 0.00 | 67 | 1011.2 |
| 20260506041432 | 18 | 270 | 1.6 | 14.5 | 0.00 | 0.00 | 0.00 | 67 | 1011.2 |
| 20260506040929 | 18 | 183 | 0.0 | 11.3 | 0.00 | 0.00 | 0.00 | 67 | 1011.4 |
| 20260506040426 | 18 | 183 | 1.6 | 11.3 | 0.00 | 0.00 | 0.00 | 67 | 1011.3 |
| 20260506035922 | 19 | 152 | 4.8 | 6.4 | 0.00 | 0.00 | 0.00 | 67 | 1011.1 |
| 20260506035420 | 18 | 142 | 3.2 | 12.9 | 0.00 | 0.00 | 0.00 | 67 | 1011.1 |
| 20260506034917 | 19 | 207 | 3.2 | 4.8 | 0.00 | 0.00 | 0.00 | 66 | 1011.2 |
| 20260506034414 | 19 | 152 | 3.2 | 6.4 | 0.00 | 0.00 | 0.00 | 66 | 1011.4 |
| 20260506033911 | 19 | 170 | 9.7 | 12.9 | 0.00 | 0.00 | 0.00 | 66 | 1011.3 |
| 20260506033408 | 19 | 199 | 4.8 | 6.4 | 0.00 | 0.00 | 0.00 | 66 | 1011.4 |
| 20260506032905 | 19 | 157 | 4.8 | 9.7 | 0.00 | 0.00 | 0.00 | 66 | 1011.2 |
| 20260506032402 | 19 | 161 | 3.2 | 16.1 | 0.00 | 0.00 | 0.00 | 66 | 1011.2 |
| 20260506031858 | 19 | 144 | 3.2 | 11.3 | 0.00 | 0.00 | 0.00 | 66 | 1011.3 |
| 20260506031356 | 19 | 155 | 4.8 | 9.7 | 0.00 | 0.00 | 0.00 | 66 | 1011.2 |
| 20260506030853 | 19 | 126 | 3.2 | 6.4 | 0.00 | 0.00 | 0.00 | 66 | 1011.2 |
| 20260506030351 | 19 | 156 | 1.6 | 11.3 | 0.00 | 0.00 | 0.00 | 65 | 1011.2 |
| 20260506025848 | 19 | 160 | 6.4 | 14.5 | 0.00 | 0.00 | 0.00 | 66 | 1011.4 |
| 20260506025344 | 19 | 170 | 3.2 | 9.7 | 0.00 | 0.00 | 0.00 | 66 | 1011.1 |
| 20260506024841 | 19 | 143 | 3.2 | 4.8 | 0.00 | 0.00 | 0.00 | 65 | 1011.2 |
| 20260506024338 | 19 | 209 | 3.2 | 12.9 | 0.00 | 0.00 | 0.00 | 65 | 1011.3 |
| 20260506023834 | 19 | 197 | 1.6 | 12.9 | 0.00 | 0.00 | 0.00 | 64 | 1011.4 |
| 20260506023331 | 19 | 156 | 1.6 | 6.4 | 0.00 | 0.00 | 0.00 | 64 | 1011.5 |
| 20260506022828 | 20 | 214 | 4.8 | 6.4 | 0.00 | 0.00 | 0.00 | 63 | 1011.5 |
| 20260506022326 | 20 | 163 | 9.7 | 12.9 | 0.00 | 0.00 | 0.00 | 63 | 1011.5 |
| 20260506021824 | 20 | 216 | 3.2 | 9.7 | 0.00 | 0.00 | 0.00 | 62 | 1011.4 |
| 20260506021320 | 20 | 207 | 8.0 | 12.9 | 0.00 | 0.00 | 0.00 | 61 | 1011.5 |
| 20260506020817 | 20 | 163 | 3.2 | 22.5 | 0.00 | 0.00 | 0.00 | 61 | 1011.3 |
| 20260506020315 | 20 | 156 | 4.8 | 9.7 | 0.00 | 0.00 | 0.00 | 60 | 1011.4 |
| 20260506015813 | 20 | 111 | 14.5 | 17.7 | 0.00 | 0.00 | 0.00 | 60 | 1011.3 |
| 20260506015310 | 20 | 158 | 8.0 | 17.7 | 0.00 | 0.00 | 0.00 | 59 | 1011.6 |
| 20260506014806 | 20 | 166 | 4.8 | 16.1 | 0.00 | 0.00 | 0.00 | 59 | 1011.6 |
| 20260506014303 | 20 | 213 | 6.4 | 14.5 | 0.00 | 0.00 | 0.00 | 59 | 1011.2 |
| 20260506013800 | 20 | 153 | 3.2 | 14.5 | 0.00 | 0.00 | 0.00 | 59 | 1011.2 |
| 20260506013257 | 20 | 197 | 6.4 | 16.1 | 0.00 | 0.00 | 0.00 | 58 | 1011.2 |
| 20260506012753 | 20 | 132 | 8.0 | 12.9 | 0.00 | 0.00 | 0.00 | 58 | 1011.1 |
| 20260506012250 | 20 | 229 | 6.4 | 14.5 | 0.00 | 0.00 | 0.00 | 57 | 1011.0 |
| 20260506011748 | 20 | 222 | 9.7 | 14.5 | 0.00 | 0.00 | 0.00 | 57 | 1011.0 |
| 20260506011244 | 20 | 157 | 6.4 | 16.1 | 0.00 | 0.00 | 0.00 | 56 | 1011.0 |
| 20260506010742 | 20 | 196 | 8.0 | 14.5 | 0.00 | 0.00 | 0.00 | 56 | 1011.0 |
| 20260506010239 | 20 | 134 | 9.7 | 16.1 | 0.00 | 0.00 | 0.00 | 56 | 1010.9 |
| 20260506005737 | 20 | 95 | 8.0 | 11.3 | 0.00 | 0.00 | 0.00 | 56 | 1010.9 |
| 20260506005233 | 20 | 151 | 6.4 | 9.7 | 0.00 | 0.00 | 0.00 | 56 | 1011.0 |
| 20260506004729 | 20 | 223 | 6.4 | 11.3 | 0.00 | 0.00 | 0.00 | 55 | 1010.9 |
| 20260506004227 | 21 | 146 | 0.0 | 1.6 | 0.00 | 0.00 | 0.00 | 55 | 1010.9 |
| 20260506003722 | 21 | 147 | 3.2 | 12.9 | 0.00 | 0.00 | 0.00 | 55 | 1010.7 |
| 20260506003219 | 21 | 151 | 3.2 | 16.1 | 0.00 | 0.00 | 0.00 | 54 | 1010.7 |
| 20260506002715 | 21 | 129 | 3.2 | 4.8 | 0.00 | 0.00 | 0.00 | 54 | 1010.7 |
| 20260506002212 | 21 | 171 | 9.7 | 12.9 | 0.00 | 0.00 | 0.00 | 54 | 1010.7 |
| 20260506001707 | 21 | 153 | 3.2 | 11.3 | 0.00 | 0.00 | 0.00 | 54 | 1010.6 |
| 20260506001205 | 21 | 151 | 4.8 | 9.7 | 0.00 | 0.00 | 0.00 | 53 | 1010.4 |